sensor_id;sensor_type;location;lat;lon;timestamp;P1;durP1;ratioP1;P2;durP2;ratioP2
8861;SDS011;4799;50.996;4.754;2022-07-29T00:00:43;2.67;;;2.10;;
8861;SDS011;4799;50.996;4.754;2022-07-29T00:03:12;4.27;;;2.07;;
8861;SDS011;4799;50.996;4.754;2022-07-29T00:05:39;3.33;;;2.20;;
8861;SDS011;4799;50.996;4.754;2022-07-29T00:08:06;4.87;;;2.20;;
8861;SDS011;4799;50.996;4.754;2022-07-29T00:10:32;5.57;;;2.20;;
8861;SDS011;4799;50.996;4.754;2022-07-29T00:12:58;3.77;;;2.17;;
8861;SDS011;4799;50.996;4.754;2022-07-29T00:15:24;4.70;;;2.37;;
8861;SDS011;4799;50.996;4.754;2022-07-29T00:17:50;5.10;;;2.47;;
8861;SDS011;4799;50.996;4.754;2022-07-29T00:20:16;4.07;;;2.50;;
8861;SDS011;4799;50.996;4.754;2022-07-29T00:22:42;5.97;;;2.63;;
8861;SDS011;4799;50.996;4.754;2022-07-29T00:25:07;4.83;;;2.50;;
8861;SDS011;4799;50.996;4.754;2022-07-29T00:27:34;3.03;;;2.53;;
8861;SDS011;4799;50.996;4.754;2022-07-29T00:30:00;4.07;;;2.53;;
8861;SDS011;4799;50.996;4.754;2022-07-29T00:32:26;3.83;;;2.40;;
8861;SDS011;4799;50.996;4.754;2022-07-29T00:34:52;4.07;;;2.23;;
8861;SDS011;4799;50.996;4.754;2022-07-29T00:37:36;3.40;;;2.40;;
8861;SDS011;4799;50.996;4.754;2022-07-29T00:40:02;4.70;;;2.37;;
8861;SDS011;4799;50.996;4.754;2022-07-29T00:42:28;5.73;;;2.57;;
8861;SDS011;4799;50.996;4.754;2022-07-29T00:44:54;4.30;;;2.80;;
8861;SDS011;4799;50.996;4.754;2022-07-29T00:47:20;3.60;;;2.37;;
8861;SDS011;4799;50.996;4.754;2022-07-29T00:49:45;6.03;;;2.97;;
8861;SDS011;4799;50.996;4.754;2022-07-29T00:52:11;4.07;;;2.27;;
8861;SDS011;4799;50.996;4.754;2022-07-29T00:54:38;5.03;;;2.70;;
8861;SDS011;4799;50.996;4.754;2022-07-29T00:57:05;4.17;;;2.23;;
8861;SDS011;4799;50.996;4.754;2022-07-29T00:59:33;4.30;;;2.20;;
8861;SDS011;4799;50.996;4.754;2022-07-29T01:01:59;4.37;;;2.30;;
8861;SDS011;4799;50.996;4.754;2022-07-29T01:04:25;4.20;;;2.33;;
8861;SDS011;4799;50.996;4.754;2022-07-29T01:06:51;3.07;;;1.90;;
8861;SDS011;4799;50.996;4.754;2022-07-29T01:09:17;2.70;;;2.00;;
8861;SDS011;4799;50.996;4.754;2022-07-29T01:11:44;4.33;;;2.30;;
8861;SDS011;4799;50.996;4.754;2022-07-29T01:14:12;4.43;;;2.00;;
8861;SDS011;4799;50.996;4.754;2022-07-29T01:17:26;3.87;;;2.20;;
8861;SDS011;4799;50.996;4.754;2022-07-29T01:25:44;4.10;;;2.50;;
8861;SDS011;4799;50.996;4.754;2022-07-29T01:28:17;4.67;;;2.20;;
8861;SDS011;4799;50.996;4.754;2022-07-29T01:31:06;4.83;;;2.00;;
8861;SDS011;4799;50.996;4.754;2022-07-29T01:33:45;2.93;;;2.03;;
8861;SDS011;4799;50.996;4.754;2022-07-29T01:36:27;3.50;;;2.10;;
8861;SDS011;4799;50.996;4.754;2022-07-29T01:41:44;5.20;;;2.30;;
8861;SDS011;4799;50.996;4.754;2022-07-29T01:44:34;4.90;;;1.90;;
8861;SDS011;4799;50.996;4.754;2022-07-29T01:47:06;3.53;;;2.00;;
8861;SDS011;4799;50.996;4.754;2022-07-29T01:49:39;3.90;;;1.87;;
8861;SDS011;4799;50.996;4.754;2022-07-29T01:52:16;4.63;;;2.10;;
8861;SDS011;4799;50.996;4.754;2022-07-29T01:54:52;3.87;;;2.07;;
8861;SDS011;4799;50.996;4.754;2022-07-29T01:57:24;2.33;;;2.03;;
8861;SDS011;4799;50.996;4.754;2022-07-29T01:59:53;4.67;;;2.00;;
8861;SDS011;4799;50.996;4.754;2022-07-29T02:02:21;3.23;;;2.10;;
8861;SDS011;4799;50.996;4.754;2022-07-29T02:04:47;3.77;;;2.30;;
8861;SDS011;4799;50.996;4.754;2022-07-29T02:07:16;5.13;;;2.30;;
8861;SDS011;4799;50.996;4.754;2022-07-29T02:09:45;4.40;;;1.90;;
8861;SDS011;4799;50.996;4.754;2022-07-29T02:12:12;2.43;;;1.80;;
8861;SDS011;4799;50.996;4.754;2022-07-29T02:14:43;3.80;;;2.27;;
8861;SDS011;4799;50.996;4.754;2022-07-29T02:17:12;2.90;;;1.90;;
8861;SDS011;4799;50.996;4.754;2022-07-29T02:19:40;3.77;;;2.00;;
8861;SDS011;4799;50.996;4.754;2022-07-29T02:22:09;3.20;;;2.17;;
8861;SDS011;4799;50.996;4.754;2022-07-29T02:24:37;3.93;;;2.00;;
8861;SDS011;4799;50.996;4.754;2022-07-29T02:27:06;3.53;;;2.20;;
8861;SDS011;4799;50.996;4.754;2022-07-29T02:29:33;2.73;;;2.07;;
8861;SDS011;4799;50.996;4.754;2022-07-29T02:32:00;5.10;;;2.43;;
8861;SDS011;4799;50.996;4.754;2022-07-29T02:34:29;3.97;;;2.00;;
8861;SDS011;4799;50.996;4.754;2022-07-29T02:36:56;5.10;;;2.50;;
8861;SDS011;4799;50.996;4.754;2022-07-29T02:39:22;3.70;;;2.13;;
8861;SDS011;4799;50.996;4.754;2022-07-29T02:41:55;4.53;;;2.50;;
8861;SDS011;4799;50.996;4.754;2022-07-29T02:44:29;3.70;;;2.10;;
8861;SDS011;4799;50.996;4.754;2022-07-29T02:52:35;3.00;;;2.17;;
8861;SDS011;4799;50.996;4.754;2022-07-29T02:58:03;3.43;;;2.63;;
8861;SDS011;4799;50.996;4.754;2022-07-29T03:00:38;4.30;;;2.70;;
8861;SDS011;4799;50.996;4.754;2022-07-29T03:03:07;3.63;;;2.20;;
8861;SDS011;4799;50.996;4.754;2022-07-29T03:05:37;4.43;;;2.33;;
8861;SDS011;4799;50.996;4.754;2022-07-29T03:08:04;3.30;;;2.50;;
8861;SDS011;4799;50.996;4.754;2022-07-29T03:10:31;3.60;;;2.30;;
8861;SDS011;4799;50.996;4.754;2022-07-29T03:12:58;4.20;;;2.33;;
8861;SDS011;4799;50.996;4.754;2022-07-29T03:15:25;4.27;;;2.50;;
8861;SDS011;4799;50.996;4.754;2022-07-29T03:17:52;3.43;;;2.30;;
8861;SDS011;4799;50.996;4.754;2022-07-29T03:20:18;3.53;;;2.50;;
8861;SDS011;4799;50.996;4.754;2022-07-29T03:22:44;3.17;;;2.20;;
8861;SDS011;4799;50.996;4.754;2022-07-29T03:25:14;3.67;;;2.30;;
8861;SDS011;4799;50.996;4.754;2022-07-29T03:27:42;3.57;;;2.20;;
8861;SDS011;4799;50.996;4.754;2022-07-29T03:30:09;3.43;;;2.40;;
8861;SDS011;4799;50.996;4.754;2022-07-29T03:32:36;3.60;;;2.00;;
8861;SDS011;4799;50.996;4.754;2022-07-29T03:35:02;3.60;;;2.50;;
8861;SDS011;4799;50.996;4.754;2022-07-29T03:37:28;4.13;;;2.60;;
8861;SDS011;4799;50.996;4.754;2022-07-29T03:39:56;4.57;;;2.57;;
8861;SDS011;4799;50.996;4.754;2022-07-29T03:42:24;3.67;;;2.50;;
8861;SDS011;4799;50.996;4.754;2022-07-29T03:44:53;3.07;;;2.20;;
8861;SDS011;4799;50.996;4.754;2022-07-29T03:47:22;2.47;;;2.17;;
8861;SDS011;4799;50.996;4.754;2022-07-29T03:49:51;2.60;;;2.07;;
8861;SDS011;4799;50.996;4.754;2022-07-29T03:52:19;2.47;;;1.93;;
8861;SDS011;4799;50.996;4.754;2022-07-29T03:54:46;3.97;;;2.30;;
8861;SDS011;4799;50.996;4.754;2022-07-29T03:57:12;2.93;;;2.27;;
8861;SDS011;4799;50.996;4.754;2022-07-29T03:59:40;3.67;;;2.30;;
8861;SDS011;4799;50.996;4.754;2022-07-29T04:02:08;3.50;;;2.20;;
8861;SDS011;4799;50.996;4.754;2022-07-29T04:04:36;3.57;;;2.60;;
8861;SDS011;4799;50.996;4.754;2022-07-29T04:07:02;5.07;;;2.60;;
8861;SDS011;4799;50.996;4.754;2022-07-29T04:09:28;4.10;;;2.40;;
8861;SDS011;4799;50.996;4.754;2022-07-29T04:11:54;4.50;;;2.70;;
8861;SDS011;4799;50.996;4.754;2022-07-29T04:14:20;3.97;;;2.40;;
8861;SDS011;4799;50.996;4.754;2022-07-29T04:16:46;4.13;;;2.60;;
8861;SDS011;4799;50.996;4.754;2022-07-29T04:19:12;4.20;;;2.50;;
8861;SDS011;4799;50.996;4.754;2022-07-29T04:21:38;4.03;;;2.40;;
8861;SDS011;4799;50.996;4.754;2022-07-29T04:24:05;5.17;;;2.80;;
8861;SDS011;4799;50.996;4.754;2022-07-29T04:26:31;3.43;;;2.40;;
8861;SDS011;4799;50.996;4.754;2022-07-29T04:28:57;3.93;;;2.50;;
8861;SDS011;4799;50.996;4.754;2022-07-29T04:31:28;5.50;;;2.80;;
8861;SDS011;4799;50.996;4.754;2022-07-29T04:33:54;5.03;;;2.30;;
8861;SDS011;4799;50.996;4.754;2022-07-29T04:36:19;4.37;;;2.40;;
8861;SDS011;4799;50.996;4.754;2022-07-29T04:38:45;3.33;;;2.83;;
8861;SDS011;4799;50.996;4.754;2022-07-29T04:41:11;3.17;;;2.50;;
8861;SDS011;4799;50.996;4.754;2022-07-29T04:43:36;3.63;;;2.30;;
8861;SDS011;4799;50.996;4.754;2022-07-29T04:46:03;3.00;;;2.47;;
8861;SDS011;4799;50.996;4.754;2022-07-29T04:48:31;3.03;;;2.37;;
8861;SDS011;4799;50.996;4.754;2022-07-29T04:50:56;3.23;;;2.33;;
8861;SDS011;4799;50.996;4.754;2022-07-29T04:53:22;2.90;;;2.23;;
8861;SDS011;4799;50.996;4.754;2022-07-29T04:55:48;3.33;;;2.50;;
8861;SDS011;4799;50.996;4.754;2022-07-29T04:58:14;3.30;;;2.57;;
8861;SDS011;4799;50.996;4.754;2022-07-29T05:00:40;3.40;;;2.20;;
8861;SDS011;4799;50.996;4.754;2022-07-29T05:03:06;2.47;;;2.10;;
8861;SDS011;4799;50.996;4.754;2022-07-29T05:05:31;3.83;;;2.80;;
8861;SDS011;4799;50.996;4.754;2022-07-29T05:07:58;5.50;;;2.83;;
8861;SDS011;4799;50.996;4.754;2022-07-29T05:10:23;5.63;;;3.03;;
8861;SDS011;4799;50.996;4.754;2022-07-29T05:12:49;5.30;;;2.60;;
8861;SDS011;4799;50.996;4.754;2022-07-29T05:15:15;2.67;;;2.47;;
8861;SDS011;4799;50.996;4.754;2022-07-29T05:17:42;3.00;;;2.67;;
8861;SDS011;4799;50.996;4.754;2022-07-29T05:20:09;3.13;;;2.57;;
8861;SDS011;4799;50.996;4.754;2022-07-29T05:22:35;4.97;;;2.70;;
8861;SDS011;4799;50.996;4.754;2022-07-29T05:25:01;3.97;;;2.97;;
8861;SDS011;4799;50.996;4.754;2022-07-29T05:27:27;5.67;;;2.90;;
8861;SDS011;4799;50.996;4.754;2022-07-29T05:29:53;4.23;;;3.20;;
8861;SDS011;4799;50.996;4.754;2022-07-29T05:32:19;3.90;;;2.80;;
8861;SDS011;4799;50.996;4.754;2022-07-29T05:34:44;3.87;;;3.20;;
8861;SDS011;4799;50.996;4.754;2022-07-29T05:37:10;4.83;;;3.27;;
8861;SDS011;4799;50.996;4.754;2022-07-29T05:39:38;4.40;;;3.10;;
8861;SDS011;4799;50.996;4.754;2022-07-29T05:42:08;3.30;;;3.00;;
8861;SDS011;4799;50.996;4.754;2022-07-29T05:44:38;4.40;;;3.43;;
8861;SDS011;4799;50.996;4.754;2022-07-29T05:47:04;4.37;;;3.20;;
8861;SDS011;4799;50.996;4.754;2022-07-29T05:49:31;4.63;;;3.40;;
8861;SDS011;4799;50.996;4.754;2022-07-29T05:51:58;4.67;;;3.20;;
8861;SDS011;4799;50.996;4.754;2022-07-29T05:54:24;4.67;;;3.13;;
8861;SDS011;4799;50.996;4.754;2022-07-29T05:56:53;6.97;;;3.50;;
8861;SDS011;4799;50.996;4.754;2022-07-29T05:59:19;4.97;;;3.57;;
8861;SDS011;4799;50.996;4.754;2022-07-29T06:01:45;4.03;;;3.40;;
8861;SDS011;4799;50.996;4.754;2022-07-29T06:04:10;3.60;;;3.30;;
8861;SDS011;4799;50.996;4.754;2022-07-29T06:06:36;4.77;;;3.50;;
8861;SDS011;4799;50.996;4.754;2022-07-29T06:09:02;3.70;;;3.40;;
8861;SDS011;4799;50.996;4.754;2022-07-29T06:11:28;4.10;;;3.50;;
8861;SDS011;4799;50.996;4.754;2022-07-29T06:13:54;4.67;;;3.97;;
8861;SDS011;4799;50.996;4.754;2022-07-29T06:16:19;5.43;;;3.67;;
8861;SDS011;4799;50.996;4.754;2022-07-29T06:18:45;6.10;;;3.70;;
8861;SDS011;4799;50.996;4.754;2022-07-29T06:21:11;5.03;;;4.10;;
8861;SDS011;4799;50.996;4.754;2022-07-29T06:23:37;4.80;;;3.87;;
8861;SDS011;4799;50.996;4.754;2022-07-29T06:26:04;4.27;;;3.50;;
8861;SDS011;4799;50.996;4.754;2022-07-29T06:28:30;5.57;;;4.10;;
8861;SDS011;4799;50.996;4.754;2022-07-29T06:30:56;5.47;;;4.20;;
8861;SDS011;4799;50.996;4.754;2022-07-29T06:33:22;7.00;;;3.77;;
8861;SDS011;4799;50.996;4.754;2022-07-29T06:35:49;4.97;;;4.00;;
8861;SDS011;4799;50.996;4.754;2022-07-29T06:38:15;5.77;;;4.00;;
8861;SDS011;4799;50.996;4.754;2022-07-29T06:40:44;4.47;;;3.70;;
8861;SDS011;4799;50.996;4.754;2022-07-29T06:46:03;3.93;;;3.60;;
8861;SDS011;4799;50.996;4.754;2022-07-29T06:48:31;6.50;;;3.93;;
8861;SDS011;4799;50.996;4.754;2022-07-29T06:50:57;4.13;;;3.73;;
8861;SDS011;4799;50.996;4.754;2022-07-29T06:53:23;6.30;;;3.80;;
8861;SDS011;4799;50.996;4.754;2022-07-29T06:55:49;4.17;;;3.33;;
8861;SDS011;4799;50.996;4.754;2022-07-29T06:58:15;4.70;;;3.93;;
8861;SDS011;4799;50.996;4.754;2022-07-29T07:00:43;5.83;;;3.80;;
8861;SDS011;4799;50.996;4.754;2022-07-29T07:03:10;4.17;;;3.77;;
8861;SDS011;4799;50.996;4.754;2022-07-29T07:05:36;4.03;;;3.63;;
8861;SDS011;4799;50.996;4.754;2022-07-29T07:08:02;5.10;;;4.20;;
8861;SDS011;4799;50.996;4.754;2022-07-29T07:10:28;4.47;;;3.80;;
8861;SDS011;4799;50.996;4.754;2022-07-29T07:12:54;4.20;;;3.77;;
8861;SDS011;4799;50.996;4.754;2022-07-29T07:15:20;6.43;;;4.20;;
8861;SDS011;4799;50.996;4.754;2022-07-29T07:17:50;4.97;;;4.23;;
8861;SDS011;4799;50.996;4.754;2022-07-29T07:20:16;4.93;;;3.90;;
8861;SDS011;4799;50.996;4.754;2022-07-29T07:22:42;4.20;;;3.60;;
8861;SDS011;4799;50.996;4.754;2022-07-29T07:25:09;4.90;;;3.80;;
8861;SDS011;4799;50.996;4.754;2022-07-29T07:27:35;4.67;;;4.20;;
8861;SDS011;4799;50.996;4.754;2022-07-29T07:30:02;4.60;;;4.10;;
8861;SDS011;4799;50.996;4.754;2022-07-29T07:32:30;7.27;;;4.90;;
8861;SDS011;4799;50.996;4.754;2022-07-29T07:34:59;4.60;;;4.13;;
8861;SDS011;4799;50.996;4.754;2022-07-29T07:37:26;4.60;;;3.93;;
8861;SDS011;4799;50.996;4.754;2022-07-29T07:39:52;5.87;;;4.37;;
8861;SDS011;4799;50.996;4.754;2022-07-29T07:42:18;4.70;;;4.20;;
8861;SDS011;4799;50.996;4.754;2022-07-29T07:44:44;5.47;;;4.20;;
8861;SDS011;4799;50.996;4.754;2022-07-29T07:47:13;4.57;;;4.17;;
8861;SDS011;4799;50.996;4.754;2022-07-29T07:49:48;5.50;;;4.37;;
8861;SDS011;4799;50.996;4.754;2022-07-29T07:52:18;4.73;;;4.20;;
8861;SDS011;4799;50.996;4.754;2022-07-29T07:54:45;4.73;;;3.90;;
8861;SDS011;4799;50.996;4.754;2022-07-29T07:57:12;5.13;;;4.10;;
8861;SDS011;4799;50.996;4.754;2022-07-29T07:59:38;5.40;;;4.30;;
8861;SDS011;4799;50.996;4.754;2022-07-29T08:02:05;4.77;;;4.27;;
8861;SDS011;4799;50.996;4.754;2022-07-29T08:04:31;7.20;;;4.27;;
8861;SDS011;4799;50.996;4.754;2022-07-29T08:06:57;5.43;;;4.27;;
8861;SDS011;4799;50.996;4.754;2022-07-29T08:09:24;5.27;;;4.30;;
8861;SDS011;4799;50.996;4.754;2022-07-29T08:11:52;4.40;;;4.00;;
8861;SDS011;4799;50.996;4.754;2022-07-29T08:14:18;4.87;;;4.10;;
8861;SDS011;4799;50.996;4.754;2022-07-29T08:16:44;4.17;;;3.77;;
8861;SDS011;4799;50.996;4.754;2022-07-29T08:19:10;5.30;;;4.17;;
8861;SDS011;4799;50.996;4.754;2022-07-29T08:21:36;5.40;;;4.20;;
8861;SDS011;4799;50.996;4.754;2022-07-29T08:24:03;6.63;;;4.43;;
8861;SDS011;4799;50.996;4.754;2022-07-29T08:26:48;5.70;;;4.00;;
8861;SDS011;4799;50.996;4.754;2022-07-29T08:29:13;4.83;;;4.20;;
8861;SDS011;4799;50.996;4.754;2022-07-29T08:31:39;4.63;;;4.23;;
8861;SDS011;4799;50.996;4.754;2022-07-29T08:34:05;5.83;;;4.37;;
8861;SDS011;4799;50.996;4.754;2022-07-29T08:36:32;7.43;;;4.40;;
8861;SDS011;4799;50.996;4.754;2022-07-29T08:38:58;6.00;;;3.87;;
8861;SDS011;4799;50.996;4.754;2022-07-29T08:41:25;4.50;;;4.10;;
8861;SDS011;4799;50.996;4.754;2022-07-29T08:43:51;6.80;;;3.83;;
8861;SDS011;4799;50.996;4.754;2022-07-29T08:46:18;6.07;;;4.20;;
8861;SDS011;4799;50.996;4.754;2022-07-29T08:48:44;5.90;;;4.10;;
8861;SDS011;4799;50.996;4.754;2022-07-29T08:51:17;6.20;;;4.10;;
8861;SDS011;4799;50.996;4.754;2022-07-29T08:53:45;4.67;;;3.60;;
8861;SDS011;4799;50.996;4.754;2022-07-29T08:56:16;3.93;;;3.60;;
8861;SDS011;4799;50.996;4.754;2022-07-29T08:58:43;5.13;;;3.90;;
8861;SDS011;4799;50.996;4.754;2022-07-29T09:01:21;4.83;;;3.63;;
8861;SDS011;4799;50.996;4.754;2022-07-29T09:03:48;5.57;;;3.70;;
8861;SDS011;4799;50.996;4.754;2022-07-29T09:06:14;3.80;;;3.30;;
8861;SDS011;4799;50.996;4.754;2022-07-29T09:08:43;4.40;;;3.50;;
8861;SDS011;4799;50.996;4.754;2022-07-29T09:11:10;3.70;;;3.30;;
8861;SDS011;4799;50.996;4.754;2022-07-29T09:13:36;5.60;;;3.20;;
8861;SDS011;4799;50.996;4.754;2022-07-29T09:16:02;5.13;;;3.00;;
8861;SDS011;4799;50.996;4.754;2022-07-29T09:18:39;3.53;;;2.90;;
8861;SDS011;4799;50.996;4.754;2022-07-29T09:21:07;3.90;;;2.60;;
8861;SDS011;4799;50.996;4.754;2022-07-29T09:24:13;4.43;;;2.60;;
8861;SDS011;4799;50.996;4.754;2022-07-29T09:26:40;3.53;;;3.00;;
8861;SDS011;4799;50.996;4.754;2022-07-29T09:29:08;4.10;;;2.60;;
8861;SDS011;4799;50.996;4.754;2022-07-29T09:31:48;4.03;;;2.73;;
8861;SDS011;4799;50.996;4.754;2022-07-29T09:34:25;3.80;;;3.00;;
8861;SDS011;4799;50.996;4.754;2022-07-29T09:36:56;3.83;;;2.10;;
8861;SDS011;4799;50.996;4.754;2022-07-29T09:39:26;5.30;;;2.40;;
8861;SDS011;4799;50.996;4.754;2022-07-29T09:41:58;2.60;;;2.40;;
8861;SDS011;4799;50.996;4.754;2022-07-29T09:44:40;3.40;;;2.50;;
8861;SDS011;4799;50.996;4.754;2022-07-29T09:47:08;2.40;;;2.20;;
8861;SDS011;4799;50.996;4.754;2022-07-29T09:49:34;4.73;;;2.97;;
8861;SDS011;4799;50.996;4.754;2022-07-29T09:54:31;3.67;;;2.50;;
8861;SDS011;4799;50.996;4.754;2022-07-29T09:57:02;3.30;;;2.30;;
8861;SDS011;4799;50.996;4.754;2022-07-29T09:59:29;3.83;;;2.60;;
8861;SDS011;4799;50.996;4.754;2022-07-29T10:01:55;4.27;;;2.20;;
8861;SDS011;4799;50.996;4.754;2022-07-29T10:04:21;2.40;;;1.80;;
8861;SDS011;4799;50.996;4.754;2022-07-29T10:06:57;3.37;;;2.27;;
8861;SDS011;4799;50.996;4.754;2022-07-29T10:09:24;3.00;;;2.47;;
8861;SDS011;4799;50.996;4.754;2022-07-29T10:12:06;2.70;;;2.20;;
8861;SDS011;4799;50.996;4.754;2022-07-29T10:14:38;3.37;;;2.37;;
8861;SDS011;4799;50.996;4.754;2022-07-29T10:17:05;4.10;;;2.60;;
8861;SDS011;4799;50.996;4.754;2022-07-29T10:19:32;3.30;;;2.57;;
8861;SDS011;4799;50.996;4.754;2022-07-29T10:21:59;4.33;;;2.43;;
8861;SDS011;4799;50.996;4.754;2022-07-29T10:24:26;4.27;;;2.87;;
8861;SDS011;4799;50.996;4.754;2022-07-29T10:26:58;3.40;;;3.00;;
8861;SDS011;4799;50.996;4.754;2022-07-29T10:29:26;3.07;;;2.80;;
8861;SDS011;4799;50.996;4.754;2022-07-29T10:43:32;3.97;;;3.47;;
8861;SDS011;4799;50.996;4.754;2022-07-29T10:46:02;5.20;;;3.20;;
8861;SDS011;4799;50.996;4.754;2022-07-29T10:48:29;4.47;;;2.70;;
8861;SDS011;4799;50.996;4.754;2022-07-29T10:50:55;4.43;;;2.90;;
8861;SDS011;4799;50.996;4.754;2022-07-29T10:53:22;4.33;;;2.80;;
8861;SDS011;4799;50.996;4.754;2022-07-29T10:55:49;4.20;;;2.50;;
8861;SDS011;4799;50.996;4.754;2022-07-29T10:58:17;3.57;;;2.70;;
8861;SDS011;4799;50.996;4.754;2022-07-29T11:00:46;3.40;;;2.80;;
8861;SDS011;4799;50.996;4.754;2022-07-29T11:06:13;3.67;;;2.40;;
8861;SDS011;4799;50.996;4.754;2022-07-29T11:08:40;3.17;;;2.47;;
8861;SDS011;4799;50.996;4.754;2022-07-29T11:11:30;5.60;;;3.00;;
8861;SDS011;4799;50.996;4.754;2022-07-29T11:13:56;4.43;;;2.40;;
8861;SDS011;4799;50.996;4.754;2022-07-29T11:16:22;2.73;;;2.40;;
8861;SDS011;4799;50.996;4.754;2022-07-29T11:21:35;3.60;;;2.23;;
8861;SDS011;4799;50.996;4.754;2022-07-29T11:24:13;3.93;;;2.20;;
8861;SDS011;4799;50.996;4.754;2022-07-29T11:26:43;2.47;;;2.03;;
8861;SDS011;4799;50.996;4.754;2022-07-29T11:29:27;3.63;;;2.37;;
8861;SDS011;4799;50.996;4.754;2022-07-29T11:31:53;5.20;;;2.27;;
8861;SDS011;4799;50.996;4.754;2022-07-29T11:34:34;3.13;;;2.07;;
8861;SDS011;4799;50.996;4.754;2022-07-29T11:39:47;5.97;;;2.27;;
8861;SDS011;4799;50.996;4.754;2022-07-29T11:47:38;4.33;;;1.70;;
8861;SDS011;4799;50.996;4.754;2022-07-29T11:50:11;2.33;;;1.90;;
8861;SDS011;4799;50.996;4.754;2022-07-29T11:52:40;2.80;;;2.20;;
8861;SDS011;4799;50.996;4.754;2022-07-29T11:55:20;3.47;;;2.10;;
8861;SDS011;4799;50.996;4.754;2022-07-29T11:57:48;3.27;;;2.40;;
8861;SDS011;4799;50.996;4.754;2022-07-29T12:02:55;4.43;;;2.03;;
8861;SDS011;4799;50.996;4.754;2022-07-29T12:05:30;3.77;;;2.23;;
8861;SDS011;4799;50.996;4.754;2022-07-29T12:08:03;3.47;;;2.03;;
8861;SDS011;4799;50.996;4.754;2022-07-29T12:10:34;3.17;;;2.07;;
8861;SDS011;4799;50.996;4.754;2022-07-29T12:13:00;3.63;;;2.20;;
8861;SDS011;4799;50.996;4.754;2022-07-29T12:15:25;3.53;;;2.03;;
8861;SDS011;4799;50.996;4.754;2022-07-29T12:17:51;4.00;;;2.40;;
8861;SDS011;4799;50.996;4.754;2022-07-29T12:20:25;4.87;;;2.10;;
8861;SDS011;4799;50.996;4.754;2022-07-29T12:22:53;2.50;;;2.00;;
8861;SDS011;4799;50.996;4.754;2022-07-29T12:25:23;5.60;;;2.47;;
8861;SDS011;4799;50.996;4.754;2022-07-29T12:27:59;3.83;;;1.87;;
8861;SDS011;4799;50.996;4.754;2022-07-29T12:30:45;3.83;;;2.00;;
8861;SDS011;4799;50.996;4.754;2022-07-29T12:33:14;3.20;;;1.83;;
8861;SDS011;4799;50.996;4.754;2022-07-29T12:35:42;4.50;;;2.10;;
8861;SDS011;4799;50.996;4.754;2022-07-29T12:38:10;3.63;;;2.13;;
8861;SDS011;4799;50.996;4.754;2022-07-29T12:40:37;3.88;;;1.98;;
8861;SDS011;4799;50.996;4.754;2022-07-29T12:43:07;4.03;;;2.00;;
8861;SDS011;4799;50.996;4.754;2022-07-29T12:45:45;4.38;;;1.80;;
8861;SDS011;4799;50.996;4.754;2022-07-29T12:48:14;4.80;;;2.10;;
8861;SDS011;4799;50.996;4.754;2022-07-29T12:50:53;4.13;;;2.10;;
8861;SDS011;4799;50.996;4.754;2022-07-29T12:53:20;4.03;;;2.10;;
8861;SDS011;4799;50.996;4.754;2022-07-29T12:55:48;3.65;;;1.90;;
8861;SDS011;4799;50.996;4.754;2022-07-29T13:01:12;3.17;;;2.15;;
8861;SDS011;4799;50.996;4.754;2022-07-29T13:03:45;2.33;;;2.13;;
8861;SDS011;4799;50.996;4.754;2022-07-29T13:09:12;3.13;;;2.15;;
8861;SDS011;4799;50.996;4.754;2022-07-29T13:11:47;4.78;;;2.28;;
8861;SDS011;4799;50.996;4.754;2022-07-29T13:16:59;3.50;;;2.20;;
8861;SDS011;4799;50.996;4.754;2022-07-29T13:19:33;4.20;;;2.40;;
8861;SDS011;4799;50.996;4.754;2022-07-29T13:21:59;4.18;;;2.17;;
8861;SDS011;4799;50.996;4.754;2022-07-29T13:24:25;3.60;;;2.05;;
8861;SDS011;4799;50.996;4.754;2022-07-29T13:26:50;6.05;;;2.40;;
8861;SDS011;4799;50.996;4.754;2022-07-29T13:29:17;5.07;;;2.00;;
8861;SDS011;4799;50.996;4.754;2022-07-29T13:31:42;4.85;;;2.13;;
8861;SDS011;4799;50.996;4.754;2022-07-29T13:34:08;5.05;;;2.10;;
8861;SDS011;4799;50.996;4.754;2022-07-29T13:36:34;4.40;;;2.28;;
8861;SDS011;4799;50.996;4.754;2022-07-29T13:39:00;4.45;;;1.92;;
8861;SDS011;4799;50.996;4.754;2022-07-29T13:41:27;4.20;;;2.20;;
8861;SDS011;4799;50.996;4.754;2022-07-29T13:43:56;3.28;;;2.03;;
8861;SDS011;4799;50.996;4.754;2022-07-29T13:46:22;5.55;;;1.92;;
8861;SDS011;4799;50.996;4.754;2022-07-29T13:48:47;2.83;;;1.83;;
8861;SDS011;4799;50.996;4.754;2022-07-29T13:51:13;4.43;;;2.10;;
8861;SDS011;4799;50.996;4.754;2022-07-29T13:53:39;4.25;;;1.90;;
8861;SDS011;4799;50.996;4.754;2022-07-29T13:56:04;6.15;;;2.67;;
8861;SDS011;4799;50.996;4.754;2022-07-29T13:58:33;3.45;;;2.15;;
8861;SDS011;4799;50.996;4.754;2022-07-29T14:00:59;4.18;;;2.28;;
8861;SDS011;4799;50.996;4.754;2022-07-29T14:03:25;3.08;;;2.10;;
8861;SDS011;4799;50.996;4.754;2022-07-29T14:05:51;3.35;;;2.15;;
8861;SDS011;4799;50.996;4.754;2022-07-29T14:08:17;2.65;;;1.98;;
8861;SDS011;4799;50.996;4.754;2022-07-29T14:10:43;3.97;;;2.40;;
8861;SDS011;4799;50.996;4.754;2022-07-29T14:13:09;4.90;;;2.42;;
8861;SDS011;4799;50.996;4.754;2022-07-29T14:15:35;4.13;;;2.47;;
8861;SDS011;4799;50.996;4.754;2022-07-29T14:18:01;3.17;;;2.30;;
8861;SDS011;4799;50.996;4.754;2022-07-29T14:20:27;3.13;;;2.10;;
8861;SDS011;4799;50.996;4.754;2022-07-29T14:22:54;3.25;;;2.20;;
8861;SDS011;4799;50.996;4.754;2022-07-29T14:25:21;3.80;;;2.30;;
8861;SDS011;4799;50.996;4.754;2022-07-29T14:27:47;3.47;;;2.58;;
8861;SDS011;4799;50.996;4.754;2022-07-29T14:30:13;6.20;;;3.30;;
8861;SDS011;4799;50.996;4.754;2022-07-29T14:32:39;3.40;;;2.40;;
8861;SDS011;4799;50.996;4.754;2022-07-29T14:35:05;5.40;;;2.63;;
8861;SDS011;4799;50.996;4.754;2022-07-29T14:37:32;6.15;;;3.10;;
8861;SDS011;4799;50.996;4.754;2022-07-29T14:39:59;6.15;;;3.00;;
8861;SDS011;4799;50.996;4.754;2022-07-29T14:42:28;6.10;;;2.75;;
8861;SDS011;4799;50.996;4.754;2022-07-29T14:44:54;5.45;;;2.72;;
8861;SDS011;4799;50.996;4.754;2022-07-29T14:47:20;4.32;;;2.60;;
8861;SDS011;4799;50.996;4.754;2022-07-29T14:49:46;3.17;;;2.75;;
8861;SDS011;4799;50.996;4.754;2022-07-29T14:52:12;4.70;;;2.92;;
8861;SDS011;4799;50.996;4.754;2022-07-29T14:54:38;4.93;;;2.58;;
8861;SDS011;4799;50.996;4.754;2022-07-29T14:57:04;4.22;;;3.00;;
8861;SDS011;4799;50.996;4.754;2022-07-29T14:59:29;8.55;;;3.42;;
8861;SDS011;4799;50.996;4.754;2022-07-29T15:01:55;4.72;;;2.90;;
8861;SDS011;4799;50.996;4.754;2022-07-29T15:04:21;4.53;;;2.65;;
8861;SDS011;4799;50.996;4.754;2022-07-29T15:06:46;4.93;;;2.67;;
8861;SDS011;4799;50.996;4.754;2022-07-29T15:09:13;4.80;;;3.13;;
8861;SDS011;4799;50.996;4.754;2022-07-29T15:11:38;4.07;;;3.30;;
8861;SDS011;4799;50.996;4.754;2022-07-29T15:14:05;3.30;;;2.97;;
8861;SDS011;4799;50.996;4.754;2022-07-29T15:16:31;7.78;;;3.25;;
8861;SDS011;4799;50.996;4.754;2022-07-29T15:18:57;5.28;;;2.90;;
8861;SDS011;4799;50.996;4.754;2022-07-29T15:21:23;2.83;;;2.50;;
8861;SDS011;4799;50.996;4.754;2022-07-29T15:23:49;4.50;;;2.92;;
8861;SDS011;4799;50.996;4.754;2022-07-29T15:26:14;4.57;;;2.83;;
8861;SDS011;4799;50.996;4.754;2022-07-29T15:28:40;6.55;;;2.78;;
8861;SDS011;4799;50.996;4.754;2022-07-29T15:31:06;3.83;;;2.42;;
8861;SDS011;4799;50.996;4.754;2022-07-29T15:33:32;4.68;;;2.92;;
8861;SDS011;4799;50.996;4.754;2022-07-29T15:35:57;3.30;;;2.50;;
8861;SDS011;4799;50.996;4.754;2022-07-29T15:38:23;4.05;;;2.47;;
8861;SDS011;4799;50.996;4.754;2022-07-29T15:40:49;4.53;;;2.40;;
8861;SDS011;4799;50.996;4.754;2022-07-29T15:43:15;3.97;;;2.47;;
8861;SDS011;4799;50.996;4.754;2022-07-29T15:45:41;4.57;;;2.45;;
8861;SDS011;4799;50.996;4.754;2022-07-29T15:48:31;4.88;;;2.67;;
8861;SDS011;4799;50.996;4.754;2022-07-29T15:50:56;3.80;;;2.60;;
8861;SDS011;4799;50.996;4.754;2022-07-29T15:53:24;5.03;;;2.42;;
8861;SDS011;4799;50.996;4.754;2022-07-29T15:55:50;4.30;;;2.80;;
8861;SDS011;4799;50.996;4.754;2022-07-29T15:58:16;4.13;;;2.53;;
8861;SDS011;4799;50.996;4.754;2022-07-29T16:00:42;5.57;;;2.95;;
8861;SDS011;4799;50.996;4.754;2022-07-29T16:03:08;3.67;;;2.50;;
8861;SDS011;4799;50.996;4.754;2022-07-29T16:05:33;3.08;;;2.17;;
8861;SDS011;4799;50.996;4.754;2022-07-29T16:07:59;4.68;;;2.33;;
8861;SDS011;4799;50.996;4.754;2022-07-29T16:10:25;3.28;;;2.00;;
8861;SDS011;4799;50.996;4.754;2022-07-29T16:12:50;4.57;;;2.40;;
8861;SDS011;4799;50.996;4.754;2022-07-29T16:15:16;4.00;;;2.30;;
8861;SDS011;4799;50.996;4.754;2022-07-29T16:17:42;5.40;;;2.10;;
8861;SDS011;4799;50.996;4.754;2022-07-29T16:20:08;3.00;;;2.10;;